createdAt,value
2018-10-05T00:00:08.203Z,99.90
2018-10-05T00:02:36.647Z,99.90
2018-10-05T00:05:05.081Z,99.90
2018-10-05T00:07:33.470Z,99.90
2018-10-05T00:10:01.891Z,99.90
2018-10-05T00:12:30.268Z,99.90
2018-10-05T00:14:58.727Z,99.90
2018-10-05T00:17:27.131Z,99.90
2018-10-05T00:19:55.543Z,99.90
2018-10-05T00:22:24.113Z,99.90
2018-10-05T00:24:52.802Z,99.90
2018-10-05T00:27:21.248Z,99.90
2018-10-05T00:29:49.639Z,99.90
2018-10-05T00:32:18.169Z,99.90
2018-10-05T00:34:46.564Z,99.90
2018-10-05T00:37:15.397Z,99.90
2018-10-05T00:39:44.102Z,99.90
2018-10-05T00:42:12.761Z,99.90
2018-10-05T00:44:41.475Z,99.90
2018-10-05T00:47:10.100Z,99.90
2018-10-05T00:49:38.718Z,99.90
2018-10-05T00:52:07.343Z,99.90
2018-10-05T00:54:35.864Z,99.90
2018-10-05T00:57:04.490Z,99.90
2018-10-05T00:59:33.076Z,99.90
2018-10-05T01:02:01.740Z,99.90
2018-10-05T01:04:30.303Z,99.90
2018-10-05T01:07:03.048Z,99.90
2018-10-05T01:09:31.907Z,99.90
2018-10-05T01:12:00.633Z,99.90
2018-10-05T01:14:29.138Z,99.90
2018-10-05T01:16:58.035Z,99.90
2018-10-05T01:19:27.808Z,99.90
2018-10-05T01:21:56.307Z,99.90
2018-10-05T01:24:24.836Z,99.90
2018-10-05T01:26:53.537Z,99.90
2018-10-05T01:29:22.179Z,99.90
2018-10-05T01:31:50.904Z,99.90
2018-10-05T01:34:19.700Z,99.90
2018-10-05T01:36:48.298Z,99.90
2018-10-05T01:39:16.908Z,99.90
2018-10-05T01:41:45.494Z,99.90
2018-10-05T01:44:14.105Z,99.90
2018-10-05T01:46:42.706Z,99.90
2018-10-05T01:49:11.221Z,99.90
2018-10-05T01:51:39.749Z,99.90
2018-10-05T01:54:08.327Z,99.90
2018-10-05T01:56:37.094Z,99.90
2018-10-05T01:59:05.706Z,99.90
2018-10-05T02:01:34.556Z,99.90
2018-10-05T02:04:03.084Z,99.90
2018-10-05T02:06:31.615Z,99.90
2018-10-05T02:09:00.207Z,99.90
2018-10-05T02:11:28.635Z,99.90
2018-10-05T02:13:57.351Z,99.90
2018-10-05T02:16:25.726Z,99.90
2018-10-05T02:18:54.103Z,99.90
2018-10-05T02:21:22.783Z,99.90
2018-10-05T02:23:51.261Z,99.90
2018-10-05T02:26:19.610Z,99.90
2018-10-05T02:28:48.026Z,99.90
2018-10-05T02:31:16.387Z,99.90
2018-10-05T02:33:44.778Z,99.90
2018-10-05T02:36:13.134Z,99.90
2018-10-05T02:38:41.539Z,99.90
2018-10-05T02:41:09.952Z,99.90
2018-10-05T02:43:38.351Z,99.90
2018-10-05T02:46:06.706Z,99.90
2018-10-05T02:48:35.405Z,99.90
2018-10-05T02:51:04.820Z,99.90
2018-10-05T02:53:33.687Z,99.90
2018-10-05T02:56:04.187Z,99.90
2018-10-05T02:58:32.752Z,99.90
2018-10-05T03:01:12.581Z,99.90
2018-10-05T03:03:40.967Z,99.90
2018-10-05T03:06:09.360Z,99.90
2018-10-05T03:08:37.748Z,99.90
2018-10-05T03:11:06.375Z,99.90
2018-10-05T03:13:34.754Z,99.90
2018-10-05T03:16:03.115Z,99.90
2018-10-05T03:18:31.499Z,99.90
2018-10-05T03:21:00.077Z,99.90
2018-10-05T03:23:28.511Z,99.90
2018-10-05T03:25:56.903Z,99.90
2018-10-05T03:28:25.281Z,99.90
2018-10-05T03:30:53.670Z,99.90
2018-10-05T03:33:22.053Z,99.90
2018-10-05T03:35:50.546Z,99.90
2018-10-05T03:38:18.872Z,99.90
2018-10-05T03:40:47.240Z,99.90
2018-10-05T03:43:15.582Z,99.90
2018-10-05T03:45:44.215Z,99.90
2018-10-05T03:48:12.622Z,99.90
2018-10-05T03:50:41.058Z,99.90
2018-10-05T03:53:09.438Z,99.90
2018-10-05T03:55:37.902Z,99.90
2018-10-05T03:58:06.527Z,99.90
2018-10-05T04:00:35.005Z,99.90
2018-10-05T04:03:03.727Z,99.90
2018-10-05T04:05:32.652Z,99.90
2018-10-05T04:08:01.100Z,99.90
2018-10-05T04:10:29.473Z,99.90
2018-10-05T04:12:57.906Z,99.90
2018-10-05T04:15:26.623Z,99.90
2018-10-05T04:17:55.479Z,99.90
2018-10-05T04:20:24.097Z,99.90
2018-10-05T04:22:52.580Z,99.90
2018-10-05T04:25:21.253Z,99.90
2018-10-05T04:27:50.213Z,99.90
2018-10-05T04:30:18.699Z,99.90
2018-10-05T04:32:47.169Z,99.90
2018-10-05T04:35:15.525Z,99.90
2018-10-05T04:37:43.941Z,99.90
2018-10-05T04:40:12.283Z,99.90
2018-10-05T04:42:41.216Z,99.90
2018-10-05T04:45:09.673Z,99.90
2018-10-05T04:47:38.313Z,99.90
2018-10-05T04:50:06.787Z,99.90
2018-10-05T04:52:35.479Z,99.90
2018-10-05T04:55:04.020Z,99.90
2018-10-05T04:57:32.436Z,99.90
2018-10-05T05:00:00.819Z,99.90
2018-10-05T05:02:29.282Z,99.90
2018-10-05T05:04:57.707Z,99.90
2018-10-05T05:07:26.157Z,99.90
2018-10-05T05:09:54.614Z,99.90
2018-10-05T05:12:23.048Z,99.90
2018-10-05T05:14:51.418Z,99.90
2018-10-05T05:17:19.825Z,99.90
2018-10-05T05:19:48.329Z,99.90
2018-10-05T05:22:16.562Z,99.90
2018-10-05T05:24:44.919Z,99.90
2018-10-05T05:27:13.335Z,99.90
2018-10-05T05:29:41.687Z,99.90
2018-10-05T05:32:10.044Z,99.90
2018-10-05T05:34:38.425Z,99.90
2018-10-05T05:37:06.758Z,99.90
2018-10-05T05:39:35.111Z,99.90
2018-10-05T05:42:03.467Z,99.90
2018-10-05T05:44:31.826Z,99.90
2018-10-05T05:47:00.221Z,99.90
2018-10-05T05:49:28.542Z,99.90
2018-10-05T05:51:56.906Z,99.90
2018-10-05T05:54:25.334Z,99.90
2018-10-05T05:56:53.677Z,99.90
2018-10-05T05:59:22.031Z,99.90
2018-10-05T06:01:50.429Z,99.90
2018-10-05T06:04:18.882Z,99.90
2018-10-05T06:06:47.262Z,99.90
2018-10-05T06:09:15.664Z,99.90
2018-10-05T06:11:44.007Z,99.90
2018-10-05T06:14:12.383Z,99.90
2018-10-05T06:16:40.759Z,99.90
2018-10-05T06:19:09.116Z,99.90
2018-10-05T06:21:37.568Z,99.90
2018-10-05T06:24:06.001Z,99.90
2018-10-05T06:26:34.480Z,99.90
2018-10-05T06:29:03.037Z,99.90
2018-10-05T06:31:31.477Z,99.90
2018-10-05T06:33:59.869Z,99.90
2018-10-05T06:36:28.308Z,99.90
2018-10-05T06:38:56.745Z,99.90
2018-10-05T06:41:25.100Z,99.90
2018-10-05T06:43:53.444Z,99.90
2018-10-05T06:46:21.875Z,99.90
2018-10-05T06:48:50.295Z,99.90
2018-10-05T06:51:18.689Z,99.90
2018-10-05T06:53:47.103Z,99.90
2018-10-05T06:56:15.636Z,99.90
2018-10-05T06:58:44.061Z,99.90
2018-10-05T07:01:12.469Z,99.90
2018-10-05T07:03:40.873Z,99.90
2018-10-05T07:06:09.414Z,99.90
2018-10-05T07:08:38.223Z,99.90
2018-10-05T07:11:06.761Z,99.90
2018-10-05T07:13:35.208Z,99.90
2018-10-05T07:16:03.645Z,99.90
2018-10-05T07:18:32.154Z,99.90
2018-10-05T07:21:00.792Z,99.90
2018-10-05T07:23:29.428Z,99.90
2018-10-05T07:25:57.978Z,99.90
2018-10-05T07:28:26.608Z,99.90
2018-10-05T07:30:54.837Z,99.90
2018-10-05T07:33:23.279Z,99.90
2018-10-05T07:35:51.955Z,99.90
2018-10-05T07:38:20.489Z,99.90
2018-10-05T07:40:48.916Z,99.90
2018-10-05T07:43:17.392Z,99.90
2018-10-05T07:45:45.986Z,99.90
2018-10-05T07:48:14.423Z,99.90
2018-10-05T07:50:43.045Z,99.90
2018-10-05T07:53:11.475Z,99.90
2018-10-05T07:55:40.030Z,99.90
2018-10-05T07:58:08.412Z,99.90
2018-10-05T08:00:36.815Z,99.90
2018-10-05T08:03:05.276Z,99.90
2018-10-05T08:05:33.676Z,99.90
2018-10-05T08:08:02.001Z,99.90
2018-10-05T08:10:30.563Z,99.90
2018-10-05T08:12:58.960Z,99.90
2018-10-05T08:15:27.407Z,99.90
2018-10-05T08:17:55.827Z,99.90
2018-10-05T08:20:24.275Z,99.90
2018-10-05T08:22:52.667Z,99.90
2018-10-05T08:25:21.127Z,99.90
2018-10-05T08:27:49.748Z,99.90
2018-10-05T08:30:18.330Z,99.90
2018-10-05T08:32:46.953Z,99.90
2018-10-05T08:35:15.758Z,99.90
2018-10-05T08:37:44.378Z,99.30
2018-10-05T08:40:12.980Z,97.00
2018-10-05T08:42:42.404Z,96.50
2018-10-05T08:45:11.521Z,97.40
2018-10-05T08:47:41.067Z,96.20
2018-10-05T08:50:09.763Z,95.80
2018-10-05T08:52:39.744Z,93.00
2018-10-05T08:55:08.567Z,90.80
2018-10-05T08:57:37.359Z,90.80
2018-10-05T09:00:06.353Z,85.90
2018-10-05T09:02:34.944Z,88.90
2018-10-05T09:05:03.618Z,87.30
2018-10-05T09:07:32.246Z,80.40
2018-10-05T09:10:00.854Z,78.50
2018-10-05T09:12:29.363Z,78.00
2018-10-05T09:14:58.461Z,83.10
2018-10-05T09:17:27.089Z,79.40
2018-10-05T09:19:55.823Z,73.10
2018-10-05T09:22:24.962Z,73.60
2018-10-05T09:24:54.823Z,76.90
2018-10-05T09:27:23.454Z,75.40
2018-10-05T09:29:52.040Z,70.50
2018-10-05T09:32:20.509Z,69.10
2018-10-05T09:34:49.234Z,69.70
2018-10-05T09:37:17.915Z,65.50
2018-10-05T09:39:46.684Z,65.50
2018-10-05T09:42:15.367Z,67.50
2018-10-05T09:44:44.204Z,66.10
2018-10-05T09:47:12.787Z,65.60
2018-10-05T09:49:41.536Z,66.40
2018-10-05T09:52:10.252Z,69.20
2018-10-05T09:54:39.079Z,69.00
2018-10-05T09:57:07.684Z,69.40
2018-10-05T09:59:36.464Z,69.40
2018-10-05T10:02:10.265Z,66.60
2018-10-05T10:04:38.949Z,63.60
2018-10-05T10:07:07.554Z,63.60
2018-10-05T10:09:36.044Z,64.00
2018-10-05T10:12:04.525Z,63.30
2018-10-05T10:14:32.931Z,61.80
2018-10-05T10:17:01.357Z,60.50
2018-10-05T10:19:29.939Z,60.50
2018-10-05T10:21:58.379Z,64.10
2018-10-05T10:24:26.822Z,66.40
2018-10-05T10:26:55.242Z,67.10
2018-10-05T10:29:23.811Z,66.10
2018-10-05T10:31:52.314Z,66.00
2018-10-05T10:34:20.926Z,65.00
2018-10-05T10:36:49.480Z,65.80
2018-10-05T10:39:17.822Z,65.80
2018-10-05T10:41:46.520Z,66.50
2018-10-05T10:44:15.184Z,66.50
2018-10-05T10:46:43.863Z,65.40
2018-10-05T10:49:12.285Z,65.20
2018-10-05T10:51:40.824Z,64.70
2018-10-05T10:54:09.579Z,64.70
2018-10-05T10:56:38.341Z,64.90
2018-10-05T10:59:06.866Z,65.20
2018-10-05T11:01:35.330Z,65.60
2018-10-05T11:04:03.873Z,65.10
2018-10-05T11:06:32.451Z,61.40
2018-10-05T11:09:01.163Z,59.30
2018-10-05T11:11:29.810Z,59.10
2018-10-05T11:13:58.429Z,59.50
2018-10-05T11:16:27.064Z,63.10
2018-10-05T11:18:55.585Z,61.80
2018-10-05T11:21:24.182Z,59.80
2018-10-05T11:23:52.602Z,59.90
2018-10-05T11:26:21.094Z,57.70
2018-10-05T11:28:49.703Z,56.10
2018-10-05T11:31:18.291Z,56.60
2018-10-05T11:33:46.707Z,57.50
2018-10-05T11:36:15.187Z,57.90
2018-10-05T11:38:43.719Z,59.20
2018-10-05T11:41:12.139Z,58.70
2018-10-05T11:43:40.664Z,58.50
2018-10-05T11:46:09.149Z,58.80
2018-10-05T11:48:37.546Z,56.90
2018-10-05T11:51:06.706Z,57.10
2018-10-05T11:53:35.447Z,57.10
2018-10-05T11:56:03.999Z,56.10
2018-10-05T11:58:32.639Z,56.60
2018-10-05T12:01:01.349Z,56.00
2018-10-05T12:03:30.121Z,56.10
2018-10-05T12:05:58.618Z,55.50
2018-10-05T12:08:27.372Z,54.40
2018-10-05T12:10:55.987Z,54.30
2018-10-05T12:13:24.723Z,54.30
2018-10-05T12:15:53.312Z,54.50
2018-10-05T12:18:21.858Z,55.50
2018-10-05T12:20:50.489Z,55.00
2018-10-05T12:23:19.142Z,53.80
2018-10-05T12:25:47.722Z,54.20
2018-10-05T12:28:16.304Z,53.80
2018-10-05T12:30:44.960Z,54.50
2018-10-05T12:33:13.762Z,54.50
2018-10-05T12:35:42.310Z,54.50
2018-10-05T12:38:10.698Z,54.10
2018-10-05T12:40:39.164Z,53.80
2018-10-05T12:43:07.695Z,53.80
2018-10-05T12:45:36.177Z,53.10
2018-10-05T12:48:04.552Z,53.20
2018-10-05T12:50:32.971Z,52.60
2018-10-05T12:53:01.437Z,52.00
2018-10-05T12:55:29.894Z,52.10
2018-10-05T12:57:58.337Z,52.60
2018-10-05T13:00:26.831Z,51.70
2018-10-05T13:02:55.228Z,51.00
2018-10-05T13:05:23.648Z,50.20
2018-10-05T13:07:52.156Z,50.80
2018-10-05T13:10:20.615Z,51.60
2018-10-05T13:12:49.066Z,51.10
2018-10-05T13:15:19.229Z,51.90
2018-10-05T13:17:47.739Z,51.60
2018-10-05T13:20:16.324Z,51.40
2018-10-05T13:22:44.950Z,52.50
2018-10-05T13:25:13.626Z,52.10
2018-10-05T13:27:42.085Z,52.40
2018-10-05T13:30:10.548Z,51.90
2018-10-05T13:32:38.944Z,51.60
2018-10-05T13:35:07.421Z,52.90
2018-10-05T13:37:35.912Z,53.70
2018-10-05T13:40:04.405Z,53.10
2018-10-05T13:42:32.969Z,53.30
2018-10-05T13:45:01.588Z,53.70
2018-10-05T13:47:30.154Z,52.90
2018-10-05T13:49:58.877Z,52.20
2018-10-05T13:52:28.107Z,51.70
2018-10-05T13:54:56.883Z,51.60
2018-10-05T13:57:25.234Z,51.50
2018-10-05T13:59:54.116Z,52.20
2018-10-05T14:02:22.655Z,52.40
2018-10-05T14:04:51.319Z,54.10
2018-10-05T14:07:19.678Z,55.40
2018-10-05T14:09:48.390Z,54.10
2018-10-05T14:12:16.864Z,55.60
2018-10-05T14:14:45.454Z,55.40
2018-10-05T14:17:14.204Z,56.00
2018-10-05T14:19:42.878Z,56.00
2018-10-05T14:22:11.387Z,57.10
2018-10-05T14:24:39.983Z,57.40
2018-10-05T14:27:08.383Z,57.00
2018-10-05T14:29:36.793Z,55.60
2018-10-05T14:32:10.036Z,54.50
2018-10-05T14:34:38.678Z,54.90
2018-10-05T14:37:07.516Z,55.30
2018-10-05T14:39:36.823Z,56.50
2018-10-05T14:42:05.531Z,56.80
2018-10-05T14:44:34.090Z,57.20
2018-10-05T14:47:02.664Z,56.20
2018-10-05T14:49:31.386Z,56.80
2018-10-05T14:51:59.896Z,56.50
2018-10-05T14:54:28.608Z,56.60
2018-10-05T14:56:57.054Z,56.70
2018-10-05T14:59:25.949Z,57.20
2018-10-05T15:01:54.315Z,58.30
2018-10-05T15:04:23.051Z,59.10
2018-10-05T15:06:51.866Z,59.90
2018-10-05T15:09:20.574Z,58.90
2018-10-05T15:11:49.313Z,59.50
2018-10-05T15:14:18.582Z,59.30
2018-10-05T15:16:47.488Z,59.50
2018-10-05T15:19:15.914Z,60.10
2018-10-05T15:21:45.456Z,60.30
2018-10-05T15:24:14.003Z,61.90
2018-10-05T15:26:42.524Z,62.10
2018-10-05T15:29:11.129Z,61.50
2018-10-05T15:31:39.643Z,63.40
2018-10-05T15:34:08.264Z,64.20
2018-10-05T15:36:41.435Z,66.10
2018-10-05T15:39:10.321Z,66.70
2018-10-05T15:41:40.163Z,68.70
2018-10-05T15:44:09.343Z,70.60
2018-10-05T15:46:58.348Z,70.60
2018-10-05T15:49:27.048Z,71.60
2018-10-05T15:51:55.531Z,73.10
2018-10-05T15:54:24.182Z,73.60
2018-10-05T15:56:52.833Z,73.70
2018-10-05T15:59:21.597Z,75.10
2018-10-05T16:01:51.064Z,76.50
2018-10-05T16:04:20.441Z,78.80
2018-10-05T16:06:49.364Z,81.50
2018-10-05T16:09:18.699Z,82.70
2018-10-05T16:11:47.876Z,83.90
2018-10-05T16:14:16.848Z,84.20
2018-10-05T16:16:45.599Z,84.80
2018-10-05T16:19:14.180Z,84.90
2018-10-05T16:21:42.761Z,85.70
2018-10-05T16:24:16.540Z,86.80
2018-10-05T16:26:44.983Z,88.40
2018-10-05T16:29:13.408Z,89.50
2018-10-05T16:31:41.813Z,90.50
2018-10-05T16:34:10.391Z,91.00
2018-10-05T16:36:39.348Z,91.40
2018-10-05T16:39:12.790Z,91.70
2018-10-05T16:41:41.168Z,92.60
2018-10-05T16:44:09.690Z,93.00
2018-10-05T16:46:38.898Z,93.50
2018-10-05T16:49:08.832Z,94.20
2018-10-05T16:51:37.476Z,94.40
2018-10-05T16:54:06.144Z,95.30
2018-10-05T16:56:34.596Z,96.20
2018-10-05T16:59:03.102Z,96.70
2018-10-05T17:01:31.621Z,98.00
2018-10-05T17:04:00.522Z,97.90
2018-10-05T17:06:29.250Z,99.00
2018-10-05T17:09:06.615Z,99.00
2018-10-05T17:11:36.701Z,99.00
2018-10-05T17:14:05.428Z,99.80
2018-10-05T17:16:34.205Z,99.90
2018-10-05T17:19:03.063Z,99.90
2018-10-05T17:21:31.954Z,99.90
2018-10-05T17:24:00.566Z,99.90
2018-10-05T17:26:29.252Z,99.90
2018-10-05T17:28:57.732Z,99.90
2018-10-05T17:31:26.390Z,99.90
2018-10-05T17:33:54.939Z,99.90
2018-10-05T17:36:24.714Z,99.90
2018-10-05T17:38:54.192Z,99.90
2018-10-05T17:41:22.941Z,99.90
2018-10-05T17:43:51.672Z,99.90
2018-10-05T17:46:20.181Z,99.90
2018-10-05T17:48:48.723Z,99.90
2018-10-05T17:51:17.216Z,99.90
2018-10-05T17:53:45.830Z,99.90
2018-10-05T17:56:14.453Z,99.90
2018-10-05T17:58:43.595Z,99.90
2018-10-05T18:01:13.118Z,99.90
2018-10-05T18:03:41.671Z,99.90
2018-10-05T18:06:10.203Z,99.90
2018-10-05T18:08:38.739Z,99.90
2018-10-05T18:11:07.240Z,99.90
2018-10-05T18:13:36.273Z,99.90
2018-10-05T18:16:05.138Z,99.90
2018-10-05T18:18:33.924Z,99.90
2018-10-05T18:21:02.935Z,99.90
2018-10-05T18:23:32.747Z,99.90
2018-10-05T18:26:01.717Z,99.90
2018-10-05T18:28:31.356Z,99.90
2018-10-05T18:31:00.378Z,99.90
2018-10-05T18:33:29.143Z,99.90
2018-10-05T18:35:58.004Z,99.90
2018-10-05T18:38:30.928Z,99.90
2018-10-05T18:40:59.652Z,99.90
2018-10-05T18:43:28.448Z,99.90
2018-10-05T18:45:57.164Z,99.90
2018-10-05T18:48:26.488Z,99.90
2018-10-05T18:50:55.853Z,99.90
2018-10-05T18:53:25.784Z,99.90
2018-10-05T18:55:54.529Z,99.90
2018-10-05T18:58:23.045Z,99.90
2018-10-05T19:00:51.554Z,99.90
2018-10-05T19:03:19.970Z,99.90
2018-10-05T19:05:48.672Z,99.90
2018-10-05T19:08:17.227Z,99.90
2018-10-05T19:10:45.680Z,99.90
2018-10-05T19:13:15.868Z,99.90
2018-10-05T19:15:44.356Z,99.90
2018-10-05T19:18:13.362Z,99.90
2018-10-05T19:20:42.529Z,99.90
2018-10-05T19:23:11.537Z,99.90
2018-10-05T19:25:40.336Z,99.90
2018-10-05T19:28:09.205Z,99.90
2018-10-05T19:30:38.100Z,99.90
2018-10-05T19:33:14.982Z,99.90
2018-10-05T19:35:44.878Z,99.90
2018-10-05T19:38:13.619Z,99.90
2018-10-05T19:40:42.626Z,99.90
2018-10-05T19:43:11.402Z,99.90
2018-10-05T19:45:40.477Z,99.90
2018-10-05T19:48:10.276Z,99.90
2018-10-05T19:50:41.027Z,99.90
2018-10-05T19:53:10.262Z,99.90
2018-10-05T19:55:39.171Z,99.90
2018-10-05T19:58:07.823Z,99.90
2018-10-05T20:00:36.944Z,99.90
2018-10-05T20:03:05.943Z,99.90
2018-10-05T20:05:34.604Z,99.90
2018-10-05T20:08:03.258Z,99.90
2018-10-05T20:10:31.988Z,99.90
2018-10-05T20:13:00.819Z,99.90
2018-10-05T20:15:29.997Z,99.90
2018-10-05T20:17:58.978Z,99.90
2018-10-05T20:20:27.735Z,99.90
2018-10-05T20:22:56.884Z,99.90
2018-10-05T20:25:26.496Z,99.90
2018-10-05T20:27:55.793Z,99.90
2018-10-05T20:30:25.064Z,99.90
2018-10-05T20:32:57.172Z,99.90
2018-10-05T20:35:26.202Z,99.90
2018-10-05T20:37:55.025Z,99.90
2018-10-05T20:40:23.628Z,99.90
2018-10-05T20:42:52.799Z,99.90
2018-10-05T20:45:21.382Z,99.90
2018-10-05T20:47:50.136Z,99.90
2018-10-05T20:50:19.199Z,99.90
2018-10-05T20:52:47.535Z,99.90
2018-10-05T20:55:16.043Z,99.90
2018-10-05T20:57:44.407Z,99.90
2018-10-05T21:00:12.805Z,99.90
2018-10-05T21:02:41.250Z,99.90
2018-10-05T21:05:09.634Z,99.90
2018-10-05T21:07:38.064Z,99.90
2018-10-05T21:10:06.860Z,99.90
2018-10-05T21:12:35.287Z,99.90
2018-10-05T21:15:03.885Z,99.90
2018-10-05T21:17:32.979Z,99.90
2018-10-05T21:20:01.665Z,99.90
2018-10-05T21:22:30.362Z,99.90
2018-10-05T21:25:00.426Z,99.90
2018-10-05T21:27:29.474Z,99.90
2018-10-05T21:30:03.264Z,99.90
2018-10-05T21:32:32.421Z,99.90
2018-10-05T21:35:01.301Z,99.90
2018-10-05T21:37:30.901Z,99.90
2018-10-05T21:39:59.731Z,99.90
2018-10-05T21:42:30.570Z,99.90
2018-10-05T21:44:59.758Z,99.90
2018-10-05T21:47:28.425Z,99.90
2018-10-05T21:49:57.161Z,99.90
2018-10-05T21:52:26.430Z,99.90
2018-10-05T21:54:55.963Z,99.90
2018-10-05T21:57:25.199Z,99.90
2018-10-05T21:59:54.963Z,99.90
2018-10-05T22:02:24.571Z,99.90
2018-10-05T22:04:53.474Z,99.90
2018-10-05T22:07:22.297Z,99.90
2018-10-05T22:09:51.264Z,99.90
2018-10-05T22:12:20.386Z,99.90
2018-10-05T22:14:50.302Z,99.90
2018-10-05T22:17:19.908Z,99.90
2018-10-05T22:19:48.978Z,99.90
2018-10-05T22:22:18.222Z,99.90
2018-10-05T22:24:47.519Z,99.90
2018-10-05T22:27:16.587Z,99.90
2018-10-05T22:29:47.030Z,99.90
2018-10-05T22:32:15.723Z,99.90
2018-10-05T22:34:44.284Z,99.90
2018-10-05T22:37:17.124Z,99.90
2018-10-05T22:39:47.001Z,99.90
2018-10-05T22:42:16.317Z,99.90
2018-10-05T22:44:49.866Z,99.90
2018-10-05T22:47:19.002Z,99.90
2018-10-05T22:49:48.572Z,99.90
2018-10-05T22:52:17.654Z,99.90
2018-10-05T22:54:46.414Z,99.90
2018-10-05T22:57:16.034Z,99.90
2018-10-05T22:59:49.507Z,99.90
2018-10-05T23:02:18.436Z,99.90
2018-10-05T23:04:47.379Z,99.90
2018-10-05T23:07:15.987Z,99.90
2018-10-05T23:09:44.593Z,99.90
2018-10-05T23:12:13.145Z,99.90
2018-10-05T23:14:42.626Z,99.90
2018-10-05T23:17:12.084Z,99.90
2018-10-05T23:19:42.024Z,99.90
2018-10-05T23:22:10.962Z,99.90
2018-10-05T23:24:41.063Z,99.90
2018-10-05T23:27:09.744Z,99.90
2018-10-05T23:29:39.411Z,99.90
2018-10-05T23:32:08.506Z,99.90
2018-10-05T23:34:38.656Z,99.90
2018-10-05T23:37:07.600Z,99.90
2018-10-05T23:39:37.029Z,99.90
2018-10-05T23:42:05.938Z,99.90
2018-10-05T23:44:34.627Z,99.90
2018-10-05T23:47:03.667Z,99.90
2018-10-05T23:49:32.963Z,99.90
2018-10-05T23:53:05.957Z,99.90
2018-10-05T23:55:34.838Z,99.90
2018-10-05T23:58:03.413Z,99.90
